Data for 05/14/2010

Time Sea-Level Adjusted Pressure Absolute Pressure Temperature Relative Humidity Dew Point   
(mb) (inHg) (mb) (inHg) (C) (F) (%) (C) (F)
00:05 1020 30.12 849 25.07 5.5 41.9 48 -4.5 23.9
00:10 1020 30.12 849 25.07 5.4 41.7 49 -4.6 23.8
00:15 1020 30.12 849 25.07 5.3 41.5 48 -4.7 23.5
00:20 1020 30.12 849 25.07 5.3 41.5 48 -4.9 23.3
00:25 1020 30.12 849 25.07 5.3 41.5 48 -4.9 23.2
00:30 1020 30.12 849 25.07 5.3 41.6 48 -4.9 23.2
00:35 1020 30.12 849 25.07 5.3 41.6 48 -4.9 23.3
00:40 1020 30.12 849 25.07 5.3 41.5 48 -4.9 23.2
00:45 1020 30.12 849 25.07 5.3 41.5 48 -4.9 23.2
00:50 1020 30.12 849 25.07 5.3 41.5 48 -4.8 23.4
00:55 1020 30.12 849 25.07 5.1 41.2 48 -4.8 23.3
01:00 1020 30.12 849 25.07 5.2 41.3 47 -5.1 22.7
01:05 1020 30.12 849 25.07 5.3 41.6 46 -5.2 22.6
01:10 1020 30.12 849 25.07 5.4 41.7 46 -5.3 22.5
01:15 1020 30.12 849 25.07 5.3 41.5 47 -5 22.9
01:20 1020 30.12 849 25.07 5.1 41.2 49 -4.8 23.3
01:25 1020 30.12 849 25.07 4.9 40.7 49 -5 22.9
01:30 1020 30.12 849 25.07 4.9 40.8 48 -5.1 22.8
01:35 1020 30.12 849 25.07 4.9 40.8 48 -5.1 22.8
01:40 1020 30.12 849 25.07 4.9 40.8 49 -4.9 23.2
01:45 1020 30.12 849 25.07 4.7 40.5 50 -4.8 23.3
01:50 1020 30.12 849 25.07 4.6 40.3 49 -5.1 22.8
01:55 1020 30.12 849 25.07 4.7 40.5 49 -5.1 22.8
02:00 1020 30.12 849 25.07 4.7 40.5 50 -5 23.1
02:05 1020 30.12 849 25.07 4.7 40.5 49 -5.1 22.9
02:10 1020 30.12 849 25.07 4.8 40.7 48 -5.2 22.6
02:15 1020 30.12 849 25.07 4.8 40.6 48 -5.2 22.7
02:20 1020 30.12 849 25.07 4.8 40.6 48 -5.2 22.7
02:25 1020 30.12 849 25.07 4.8 40.7 48 -5.3 22.5
02:30 1020 30.12 849 25.07 4.8 40.6 49 -5 22.9
02:35 1020 30.12 849 25.07 4.6 40.3 49 -5.2 22.6
02:40 1020 30.12 849 25.07 4.6 40.3 49 -5.2 22.6
02:45 1020 30.12 849 25.07 4.7 40.5 48 -5.3 22.5
02:50 1020 30.12 849 25.07 4.8 40.6 48 -5.3 22.4
02:55 1020 30.12 849 25.07 4.8 40.7 47 -5.5 22.2
03:00 1020 30.12 849 25.07 4.9 40.8 47 -5.4 22.2
03:05 1020 30.12 849 25.07 5 40.9 47 -5.5 22.1
03:10 1020 30.12 849 25.07 5 41.1 46 -5.7 21.7
03:15 1020 30.12 849 25.07 5.1 41.1 47 -5.5 22.2
03:20 1020 30.12 849 25.07 4.9 40.9 46 -5.6 21.8
03:25 1020 30.12 849 25.07 5 41 46 -5.7 21.8
03:30 1020 30.12 849 25.07 5.1 41.1 46 -5.5 22.2
03:35 1020 30.12 849 25.07 4.9 40.8 47 -5.6 22
03:40 1020 30.12 849 25.07 4.9 40.7 46 -5.8 21.5
03:45 1020 30.12 849 25.07 4.9 40.8 46 -5.6 21.9
03:50 1020 30.12 850 25.1 4.8 40.7 46 -5.7 21.7
03:55 1020 30.12 850 25.1 4.9 40.8 46 -5.7 21.8
04:00 1020 30.12 850 25.1 4.9 40.8 46 -5.9 21.4
04:05 1020 30.12 850 25.1 4.7 40.5 48 -5.3 22.4
04:10 1020 30.12 850 25.1 4.5 40.1 48 -5.6 22
04:15 1020 30.12 850 25.1 4.4 39.9 49 -5.5 22.1
04:20 1020 30.12 850 25.1 4.3 39.7 49 -5.6 21.9
04:25 1021 30.15 850 25.1 4.2 39.6 49 -5.4 22.2
04:30 1021 30.15 850 25.1 4.3 39.7 47 -6.2 20.9
04:35 1021 30.15 850 25.1 5.1 41.1 42 -6.7 19.9
04:40 1021 30.15 850 25.1 5.5 41.9 45 -5.6 21.9
04:45 1021 30.15 850 25.1 5.1 41.2 46 -5.7 21.8
04:50 1021 30.15 850 25.1 5.1 41.2 45 -5.9 21.4
04:55 1021 30.15 850 25.1 4.9 40.8 48 -5.1 22.8
05:00 1021 30.15 850 25.1 4.2 39.5 51 -5.1 22.8
05:05 1021 30.15 850 25.1 4.1 39.3 49 -5.8 21.5
05:10 1021 30.15 850 25.1 4.5 40.1 47 -5.8 21.6
05:15 1021 30.15 850 25.1 4.6 40.2 46 -5.9 21.3
05:20 1021 30.15 850 25.1 4.7 40.5 46 -5.8 21.6
05:25 1021 30.15 850 25.1 4.6 40.3 48 -5.6 22
05:30 1021 30.15 850 25.1 4.2 39.6 50 -5.3 22.4
05:35 1021 30.15 850 25.1 3.9 39.1 52 -5.1 22.7
05:40 1021 30.15 850 25.1 3.7 38.7 51 -5.5 22.2
05:45 1021 30.15 850 25.1 4 39.3 52 -4.8 23.3
05:50 1021 30.15 850 25.1 3.8 38.9 54 -4.7 23.5
05:55 1021 30.15 850 25.1 3.2 37.8 56 -4.8 23.4
06:00 1021 30.15 850 25.1 3.2 37.7 55 -5.1 22.9
06:05 1021 30.15 850 25.1 3.5 38.3 53 -5.2 22.7
06:10 1021 30.15 850 25.1 3.9 39 50 -5.5 22.1
06:15 1021 30.15 850 25.1 4 39.1 51 -5.1 22.8
06:20 1021 30.15 850 25.1 3.9 39.1 52 -5.1 22.9
06:25 1021 30.15 850 25.1 4.1 39.3 49 -5.6 22
06:30 1021 30.15 850 25.1 4.4 39.9 49 -5.5 22.1
06:35 1021 30.15 850 25.1 4.2 39.6 50 -5.3 22.4
06:40 1021 30.15 850 25.1 4 39.2 51 -5.2 22.6
06:45 1021 30.15 850 25.1 3.8 38.8 52 -5.1 22.9
06:50 1021 30.15 850 25.1 3.7 38.6 53 -5 23.1
06:55 1021 30.15 850 25.1 3.6 38.4 53 -5.2 22.7
07:00 1021 30.15 850 25.1 3.6 38.5 54 -4.8 23.3
07:05 1021 30.15 850 25.1 3.6 38.4 54 -5 23
07:10 1021 30.15 851 25.13 3.7 38.7 53 -5.1 22.8
07:15 1021 30.15 851 25.13 4 39.2 52 -5.1 22.8
07:20 1021 30.15 851 25.13 4.1 39.4 51 -5.2 22.6
07:25 1022 30.18 851 25.13 4.3 39.8 50 -5.2 22.7
07:30 1022 30.18 851 25.13 4.3 39.7 52 -4.8 23.4
07:35 1022 30.18 851 25.13 4.3 39.7 51 -5 23
07:40 1022 30.18 851 25.13 4.3 39.8 52 -4.7 23.5
07:45 1022 30.18 851 25.13 4.4 40 53 -4.4 24
07:50 1022 30.18 851 25.13 4.5 40.1 52 -4.6 23.7
07:55 1022 30.18 851 25.13 4.6 40.3 52 -4.3 24.2
08:00 1022 30.18 851 25.13 4.7 40.4 51 -4.5 23.8
08:05 1022 30.18 851 25.13 4.8 40.6 50 -4.8 23.4
08:10 1022 30.18 851 25.13 5 41.1 50 -4.4 24
08:15 1022 30.18 851 25.13 5.2 41.4 46 -5.5 22.1
08:20 1022 30.18 851 25.13 5.9 42.7 44 -5.5 22.1
08:25 1022 30.18 851 25.13 6.2 43.2 43 -5.6 22
08:30 1022 30.18 851 25.13 6.4 43.6 43 -5.4 22.3
08:35 1022 30.18 851 25.13 6.6 43.9 42 -5.2 22.6
08:40 1022 30.18 851 25.13 6.7 44 44 -4.9 23.3
08:45 1022 30.18 851 25.13 6.9 44.3 42 -5 23
08:50 1022 30.18 851 25.13 7.9 46.3 39 -5.2 22.7
08:55 1022 30.18 851 25.13 8.8 47.8 37 -5 23
09:00 1022 30.18 851 25.13 9.1 48.5 37 -4.7 23.5
09:05 1022 30.18 851 25.13 9.6 49.2 35 -4.9 23.1
09:10 1022 30.18 851 25.13 10.3 50.6 33 -5.1 22.7
09:15 1022 30.18 851 25.13 10.5 50.9 32 -5.5 22.2
09:20 1022 30.18 851 25.13 10.5 50.8 33 -5 22.9
09:25 1022 30.18 851 25.13 11.3 52.3 32 -4.9 23.2
09:30 1022 30.18 851 25.13 11.7 53 31 -4.8 23.4
09:35 1022 30.18 851 25.13 11.6 52.8 30 -5.2 22.7
09:40 1022 30.18 851 25.13 11.2 52.2 29 -5.9 21.3
09:45 1022 30.18 851 25.13 11.6 52.8 29 -5.7 21.8
09:50 1022 30.18 851 25.13 12.5 54.5 27 -5.8 21.5
09:55 1022 30.18 851 25.13 12.7 54.8 29 -4.7 23.5
10:00 1022 30.18 851 25.13 13 55.4 27 -5.4 22.3
10:05 1022 30.18 851 25.13 12.8 55.1 28 -4.9 23.1
10:10 1022 30.18 851 25.13 13.3 56 27 -5.1 22.8
10:15 1022 30.18 851 25.13 13.9 57 27 -4.7 23.6
10:20 1022 30.18 851 25.13 14.9 58.8 24 -5.4 22.2
10:25 1022 30.18 851 25.13 15.3 59.5 24 -5.3 22.5
10:30 1021 30.15 851 25.13 15.6 60.2 22 -6 21.2
10:35 1022 30.18 851 25.13 14.6 58.2 23 -6.4 20.5
10:40 1022 30.18 851 25.13 14.8 58.6 23 -6.2 20.8
10:45 1021 30.15 851 25.13 14.9 58.7 23 -6.1 21.1
10:50 1021 30.15 851 25.13 14.8 58.7 23 -5.8 21.6
10:55 1021 30.15 851 25.13 15.6 60.1 23 -5.2 22.6
11:00 1021 30.15 851 25.13 16.3 61.3 22 -5.6 22
11:05 1021 30.15 851 25.13 16.4 61.5 21 -5.7 21.8
11:10 1021 30.15 851 25.13 15.6 60 22 -5.9 21.4
11:15 1021 30.15 851 25.13 16.6 61.9 21 -5.4 22.2
11:20 1021 30.15 851 25.13 16.9 62.4 22 -5 22.9
11:25 1021 30.15 851 25.13 15.5 59.9 23 -5.5 22.2
11:30 1021 30.15 851 25.13 15.9 60.5 22 -5.6 22
11:35 1021 30.15 851 25.13 15.4 59.7 23 -5.7 21.7
11:40 1021 30.15 851 25.13 16.5 61.6 20 -6.2 20.9
11:45 1021 30.15 851 25.13 16.1 60.9 23 -5 23
11:50 1021 30.15 851 25.13 15.5 59.9 24 -5.1 22.8
11:55 1021 30.15 850 25.1 16 60.8 24 -4.7 23.5
12:00 1021 30.15 850 25.1 17 62.5 21 -5.4 22.2
12:05 1021 30.15 850 25.1 17.3 63.1 20 -5.6 21.8
12:10 1021 30.15 850 25.1 17.8 64 21 -4.7 23.6
12:15 1021 30.15 850 25.1 17.5 63.5 21 -5 22.9
12:20 1021 30.15 850 25.1 17.8 64 19 -5.8 21.5
12:25 1021 30.15 850 25.1 18.3 64.9 18 -6.1 21
12:30 1021 30.15 850 25.1 18.3 64.9 19 -5.3 22.4
12:35 1021 30.15 850 25.1 17.7 63.9 18 -6.7 19.9
12:40 1021 30.15 850 25.1 17.9 64.2 18 -6.7 20
12:45 1021 30.15 850 25.1 17.8 64 17 -7.7 18.1
12:50 1021 30.15 850 25.1 18.1 64.5 17 -7.1 19.3
12:55 1021 30.15 850 25.1 18 64.4 18 -6.9 19.6
13:00 1021 30.15 850 25.1 18.4 65.1 17 -6.9 19.6
13:05 1021 30.15 850 25.1 17.9 64.1 18 -6.9 19.5
13:10 1021 30.15 850 25.1 17.8 64.1 16 -8.5 16.8
13:15 1021 30.15 850 25.1 18.6 65.4 16 -7.6 18.2
13:20 1021 30.15 850 25.1 19 66.2 16 -7.7 18.2
13:25 1021 30.15 850 25.1 18.2 64.8 15 -9.2 15.5
13:30 1021 30.15 850 25.1 17.8 64.1 15 -8.8 16.2
13:35 1021 30.15 850 25.1 17.2 62.9 18 -7.2 19
13:40 1021 30.15 850 25.1 17.7 63.9 17 -7.9 17.7
13:45 1021 30.15 850 25.1 18 64.4 15 -8.7 16.3
13:50 1021 30.15 850 25.1 18.4 65.2 15 -8.9 16
13:55 1021 30.15 850 25.1 18.4 65.1 15 -8.5 16.8
14:00 1021 30.15 850 25.1 17.5 63.5 17 -7.9 17.7
14:05 1021 30.15 850 25.1 16.6 61.9 16 -9.6 14.6
14:10 1020 30.12 850 25.1 17 62.6 15 -9.5 14.9
14:15 1020 30.12 850 25.1 17.7 63.8 16 -8 17.6
14:20 1020 30.12 850 25.1 16.9 62.4 17 -8.4 17
14:25 1020 30.12 850 25.1 17 62.6 17 -8.2 17.3
14:30 1020 30.12 850 25.1 17.7 63.9 16 -8.2 17.3
14:35 1020 30.12 850 25.1 17.6 63.7 15 -9 15.8
14:40 1020 30.12 850 25.1 17.8 64 16 -8.6 16.5
14:45 1020 30.12 849 25.07 18.3 64.9 15 -8.7 16.4
14:50 1020 30.12 849 25.07 18.2 64.7 15 -8.5 16.7
14:55 1020 30.12 849 25.07 17.7 63.9 15 -8.9 16
15:00 1020 30.12 849 25.07 18.1 64.6 15 -8.5 16.7
15:05 1020 30.12 849 25.07 18.5 65.3 15 -8.2 17.2
15:10 1020 30.12 849 25.07 17.7 63.9 17 -7.7 18.1
15:15 1020 30.12 849 25.07 17.7 63.9 16 -8.6 16.6
15:20 1020 30.12 849 25.07 18.4 65.1 17 -7.4 18.7
15:25 1020 30.12 849 25.07 19.1 66.4 15 -8.4 16.9
15:30 1020 30.12 849 25.07 19.8 67.7 15 -7.5 18.5
15:35 1020 30.12 849 25.07 20.2 68.4 15 -7.3 18.9
15:40 1020 30.12 849 25.07 20.5 68.8 15 -7 19.3
15:45 1020 30.12 849 25.07 20.2 68.3 14 -7.7 18.2
15:50 1020 30.12 849 25.07 19.6 67.2 17 -6.1 21
15:55 1020 30.12 849 25.07 18.3 64.9 18 -6.6 20.1
16:00 1020 30.12 849 25.07 19.2 66.5 15 -7.6 18.3
16:05 1020 30.12 849 25.07 19.4 66.9 15 -7.6 18.4
16:10 1020 30.12 849 25.07 19.7 67.4 16 -6.4 20.5
16:15 1020 30.12 849 25.07 19.4 66.9 16 -6.9 19.6
16:20 1020 30.12 849 25.07 19.5 67 16 -6.7 20
16:25 1020 30.12 849 25.07 19.8 67.6 16 -7 19.4
16:30 1019 30.09 849 25.07 20.2 68.3 15 -7.3 18.9
16:35 1019 30.09 849 25.07 20.3 68.5 15 -6.8 19.8
16:40 1019 30.09 849 25.07 19.6 67.2 17 -6.1 21.1
16:45 1019 30.09 849 25.07 19.4 66.9 16 -6.6 20.1
16:50 1019 30.09 849 25.07 19 66.1 15 -7.9 17.8
16:55 1019 30.09 848 25.04 20.2 68.3 15 -7.3 18.8
17:00 1019 30.09 848 25.04 21 69.8 15 -6.9 19.6
17:05 1019 30.09 848 25.04 21 69.8 14 -7 19.4
17:10 1019 30.09 848 25.04 21 69.9 14 -7 19.4
17:15 1019 30.09 848 25.04 20.8 69.5 14 -7.2 19.1
17:20 1019 30.09 848 25.04 20.8 69.5 15 -6.8 19.8
17:25 1019 30.09 848 25.04 20.5 68.8 15 -6.9 19.6
17:30 1019 30.09 848 25.04 19.9 67.7 16 -6.6 20
17:35 1019 30.09 848 25.04 19.2 66.6 16 -6.8 19.7
17:40 1019 30.09 848 25.04 19.4 67 17 -5.9 21.3
17:45 1019 30.09 848 25.04 20.1 68.1 17 -5.9 21.3
17:50 1019 30.09 848 25.04 20.3 68.5 15 -6.6 20
17:55 1019 30.09 848 25.04 20.2 68.4 16 -6 21.2
18:00 1019 30.09 848 25.04 19.6 67.3 17 -6.3 20.7
18:05 1019 30.09 848 25.04 18.8 65.8 17 -6.8 19.8
18:10 1019 30.09 848 25.04 19.4 66.9 16 -6.6 20
18:15 1019 30.09 848 25.04 19.3 66.8 18 -5.8 21.6
18:20 1019 30.09 848 25.04 19.2 66.5 17 -6.2 20.8
18:25 1019 30.09 848 25.04 19.1 66.5 17 -6.2 20.9
18:30 1019 30.09 848 25.04 19.1 66.4 18 -5.9 21.4
18:35 1019 30.09 848 25.04 18.6 65.4 19 -5.4 22.3
18:40 1019 30.09 848 25.04 18.9 65.9 18 -6 21.2
18:45 1019 30.09 848 25.04 19.1 66.3 18 -5.8 21.5
18:50 1019 30.09 848 25.04 18.6 65.5 18 -5.9 21.4
18:55 1019 30.09 848 25.04 18.1 64.5 18 -6.2 20.8
19:00 1019 30.09 848 25.04 18 64.4 19 -6 21.2
19:05 1019 30.09 848 25.04 17.9 64.1 19 -5.7 21.7
19:10 1019 30.09 848 25.04 17.6 63.6 19 -6.1 21.1
19:15 1019 30.09 848 25.04 17.8 64 19 -6.2 20.9
19:20 1019 30.09 848 25.04 17.4 63.2 19 -6.1 21.1
19:25 1019 30.09 848 25.04 17.4 63.3 19 -6.3 20.6
19:30 1019 30.09 848 25.04 17.3 63.2 19 -6.3 20.7
19:35 1019 30.09 848 25.04 17.5 63.5 19 -6.6 20.2
19:40 1019 30.09 848 25.04 17.5 63.5 19 -6.2 20.9
19:45 1019 30.09 848 25.04 17.6 63.8 18 -6.5 20.2
19:50 1019 30.09 848 25.04 17.6 63.8 22 -4.1 24.7
19:55 1019 30.09 848 25.04 17.4 63.3 20 -5.8 21.5
20:00 1019 30.09 848 25.04 17.2 63 21 -5.4 22.2
20:05 1019 30.09 848 25.04 17.2 63 19 -6.5 20.3
20:10 1019 30.09 848 25.04 17.3 63.1 19 -6.6 20.1
20:15 1019 30.09 848 25.04 17.4 63.3 20 -5.6 21.9
20:20 1019 30.09 848 25.04 17.1 62.8 20 -6.1 21
20:25 1019 30.09 848 25.04 16.7 62.1 20 -6.4 20.5
20:30 1019 30.09 848 25.04 16.5 61.8 21 -6 21.2
20:35 1019 30.09 848 25.04 16.3 61.3 21 -6 21.2
20:40 1019 30.09 848 25.04 16 60.8 21 -6.3 20.7
20:45 1019 30.09 848 25.04 15.9 60.5 22 -6 21.2
20:50 1019 30.09 848 25.04 16 60.8 21 -6.4 20.5
20:55 1019 30.09 848 25.04 16 60.8 27 -2.9 26.7
21:00 1019 30.09 848 25.04 15.9 60.5 26 -3.6 25.6
21:05 1019 30.09 848 25.04 15.6 60.1 27 -3.3 26.1
21:10 1019 30.09 848 25.04 14.8 58.6 32 -1.7 29
21:15 1019 30.09 848 25.04 13.5 56.4 34 -2 28.3
21:20 1019 30.09 848 25.04 12.8 55 38 -1.2 29.8
21:25 1019 30.09 848 25.04 12.2 54 39 -1.2 29.8
21:30 1019 30.09 849 25.07 11.7 53.1 38 -2.1 28.1
21:35 1019 30.09 849 25.07 11.8 53.2 37 -2.2 28
21:40 1019 30.09 849 25.07 11.5 52.6 37 -2.6 27.3
21:45 1019 30.09 849 25.07 11.2 52.2 37 -2.8 26.9
21:50 1019 30.09 849 25.07 11.1 52 36 -3.5 25.7
21:55 1019 30.09 849 25.07 11 51.8 37 -2.9 26.8
22:00 1019 30.09 849 25.07 10.8 51.4 37 -3.3 26.1
22:05 1020 30.12 849 25.07 10.6 51.1 37 -3.3 26
22:10 1020 30.12 849 25.07 10.5 50.9 39 -2.7 27.2
22:15 1020 30.12 849 25.07 10.1 50.2 39 -3.1 26.5
22:20 1020 30.12 849 25.07 9.9 49.9 40 -2.9 26.8
22:25 1020 30.12 849 25.07 9.8 49.6 40 -3.1 26.4
22:30 1020 30.12 849 25.07 9.9 49.7 40 -3.1 26.4
22:35 1020 30.12 849 25.07 9.9 49.8 40 -3 26.6
22:40 1020 30.12 849 25.07 9.8 49.6 41 -2.8 26.9
22:45 1020 30.12 849 25.07 9.7 49.4 42 -2.7 27.1
22:50 1020 30.12 849 25.07 9.4 48.9 43 -2.6 27.3
22:55 1020 30.12 849 25.07 9.1 48.4 43 -2.6 27.2
23:00 1020 30.12 849 25.07 9.1 48.4 42 -3 26.6
23:05 1020 30.12 849 25.07 9.4 48.9 41 -3.1 26.4
23:10 1020 30.12 849 25.07 9.4 48.9 42 -2.8 26.9
23:15 1020 30.12 849 25.07 9.2 48.5 42 -3 26.6
23:20 1020 30.12 849 25.07 9 48.1 44 -2.6 27.3
23:25 1019 30.09 849 25.07 8.6 47.4 45 -2.5 27.4
23:30 1020 30.12 849 25.07 8.3 47 45 -2.9 26.7
23:35 1020 30.12 849 25.07 8.6 47.5 43 -3.2 26.2
23:40 1020 30.12 849 25.07 8.9 48.1 43 -3 26.6
23:45 1020 30.12 849 25.07 9 48.1 43 -3 26.6
23:50 1020 30.12 849 25.07 8.9 48.1 43 -3 26.6
23:55 1020 30.12 849 25.07 8.7 47.7 43 -3.1 26.4
24:00 1020 30.12 849 25.07 8.8 47.8 42 -3.3 26